Longlake, Louisiana
Current Conditions -  °F | °C
As of 6:53 PM on Sunday 23 Nov 2014 (Local Time) from KMLU Reporting Station
Clear Clear  
Wind Chill: 64°   Ceiling: Unl
Heat Index: 64°   Visibility: 10mi
Dew Point: 59°   Wind: 9mph
Humidity: 84%   Direction: 190°S
Pressure: 29.52"   Gusts: NA
Location:  32.1631°N, 92.1971°W
Report Text: KMLU 240053Z 19008KT 10SM CLR 18/15 A2952 RMK AO2 SLP996 T01780150
Loading
Personal Weather Stations






























Interactive Weather Map New forecast layout! Learn more

10-Day Weather Forecast

Advertisements
Track Severe Weather on mobile